createdAt,value
2018-03-26T00:09:04.695Z,101938.55
2018-03-26T00:11:32.328Z,101941.17
2018-03-26T00:14:00.014Z,101936.03
2018-03-26T00:25:36.171Z,101918.45
2018-03-26T00:28:03.857Z,101917.63
2018-03-26T00:30:31.417Z,101921.08
2018-03-26T00:42:07.944Z,101920.42
2018-03-26T00:44:35.617Z,101922.18
2018-03-26T00:47:03.167Z,101928.25
2018-03-26T00:58:39.397Z,101935.22
2018-03-26T01:01:06.996Z,101934.38
2018-03-26T01:03:34.537Z,101942.17
2018-03-26T01:06:02.117Z,101940.48
2018-03-26T01:17:38.111Z,101949.59
2018-03-26T01:20:05.710Z,101956.95
2018-03-26T01:22:33.267Z,101953.53
2018-03-26T01:34:09.181Z,101956.66
2018-03-26T01:36:36.738Z,101959.27
2018-03-26T01:39:04.391Z,101957.98
2018-03-26T01:50:40.822Z,101963.25
2018-03-26T01:53:09.172Z,101952.08
2018-03-26T01:55:36.841Z,101952.08
2018-03-26T02:07:13.289Z,101960.75
2018-03-26T02:09:40.860Z,101959.45
2018-03-26T02:12:08.482Z,101950.41
2018-03-26T02:26:17.908Z,101952.20
2018-03-26T02:28:45.493Z,101948.73
2018-03-26T02:31:13.134Z,101944.83
2018-03-26T02:42:49.511Z,101946.02
2018-03-26T02:45:17.114Z,101943.88
2018-03-26T02:47:44.698Z,101939.53
2018-03-26T02:59:20.792Z,101949.45
2018-03-26T03:01:48.355Z,101944.28
2018-03-26T03:04:15.926Z,101944.25
2018-03-26T03:15:52.200Z,101954.56
2018-03-26T03:18:19.761Z,101947.23
2018-03-26T03:20:47.352Z,101944.22
2018-03-26T03:32:23.432Z,101932.98
2018-03-26T03:34:50.983Z,101938.99
2018-03-26T03:37:18.598Z,101937.27
2018-03-26T03:39:46.633Z,101930.84
2018-03-26T03:51:22.482Z,101939.42
2018-03-26T03:53:50.155Z,101937.70
2018-03-26T03:56:18.147Z,101941.12
2018-03-26T04:07:54.946Z,101943.30
2018-03-26T04:10:22.533Z,101946.72
2018-03-26T04:12:50.094Z,101946.72
2018-03-26T04:24:26.284Z,101935.11
2018-03-26T04:26:53.866Z,101933.42
2018-03-26T04:29:21.465Z,101934.28
2018-03-26T04:40:57.465Z,101938.29
2018-03-26T04:43:25.170Z,101932.72
2018-03-26T04:45:52.789Z,101932.31
2018-03-26T04:57:35.166Z,101931.17
2018-03-26T05:00:02.920Z,101946.70
2018-03-26T05:02:30.501Z,101953.21
2018-03-26T05:04:58.122Z,101957.12
2018-03-26T05:16:35.243Z,101977.92
2018-03-26T05:19:02.810Z,101984.80
2018-03-26T05:21:31.148Z,101989.11
2018-03-26T05:32:59.389Z,101995.54
2018-03-26T05:35:26.993Z,101999.84
2018-03-26T05:37:54.533Z,101996.40
2018-03-26T05:40:43.350Z,101993.82
2018-03-26T05:43:15.941Z,101988.22
2018-03-26T05:48:19.020Z,101994.23
2018-03-26T05:50:46.605Z,101988.66
2018-03-26T05:53:14.145Z,102000.69
2018-03-26T05:55:41.757Z,101999.39
2018-03-26T05:58:15.858Z,101999.82
2018-03-26T06:00:47.264Z,101998.13
2018-03-26T06:08:27.560Z,102003.26
2018-03-26T06:10:55.157Z,102005.83
2018-03-26T06:13:22.691Z,101998.48
2018-03-26T06:15:53.058Z,102002.31
2018-03-26T06:23:42.653Z,102000.94
2018-03-26T06:26:10.236Z,102003.50
2018-03-26T06:28:37.790Z,102008.65
2018-03-26T06:31:05.377Z,102006.94
2018-03-26T06:42:41.157Z,102011.20
2018-03-26T06:45:08.988Z,102014.18
2018-03-26T06:47:36.553Z,102016.77
2018-03-26T06:59:21.525Z,102021.06
2018-03-26T07:01:49.090Z,102023.62
2018-03-26T07:04:16.731Z,102027.47
2018-03-26T07:15:52.675Z,102014.86
2018-03-26T07:18:20.211Z,102014.81
2018-03-26T07:20:47.743Z,102016.94
2018-03-26T07:32:23.080Z,102020.24
2018-03-26T07:34:50.630Z,102025.80
2018-03-26T07:37:18.232Z,102026.20
2018-03-26T07:49:00.744Z,102035.05
2018-03-26T07:51:28.300Z,102039.30
2018-03-26T07:53:55.848Z,102032.34
2018-03-26T07:56:23.393Z,102037.89
2018-03-26T08:08:00.196Z,102032.02
2018-03-26T08:10:27.745Z,102031.48
2018-03-26T08:12:55.345Z,102028.78
2018-03-26T08:24:31.518Z,102012.78
2018-03-26T08:26:59.073Z,102012.30
2018-03-26T08:29:26.620Z,102020.08
2018-03-26T08:41:03.093Z,102016.94
2018-03-26T08:43:30.689Z,102024.62
2018-03-26T08:45:58.249Z,102023.30
2018-03-26T08:57:34.877Z,102032.93
2018-03-26T09:00:02.383Z,102029.81
2018-03-26T09:02:29.948Z,102024.98
2018-03-26T09:14:18.984Z,102035.36
2018-03-26T09:16:46.549Z,102023.50
2018-03-26T09:19:14.101Z,102016.04
2018-03-26T09:21:41.678Z,102011.18
2018-03-26T09:33:17.884Z,102005.00
2018-03-26T09:35:45.437Z,101991.04
2018-03-26T09:38:12.989Z,101986.59
2018-03-26T09:49:48.995Z,102001.30
2018-03-26T09:52:16.545Z,102012.31
2018-03-26T09:54:44.152Z,102029.29
2018-03-26T10:06:20.707Z,102032.03
2018-03-26T10:08:48.260Z,102039.22
2018-03-26T10:11:15.852Z,102026.98
2018-03-26T10:22:51.961Z,102013.31
2018-03-26T10:25:19.481Z,102003.84
2018-03-26T10:27:47.053Z,102001.08
2018-03-26T10:30:14.729Z,101998.59
2018-03-26T10:41:50.865Z,101991.30
2018-03-26T10:44:18.419Z,101996.42
2018-03-26T10:46:46.008Z,101996.48
2018-03-26T10:58:22.477Z,101995.23
2018-03-26T11:00:50.053Z,101999.37
2018-03-26T11:03:17.617Z,101987.82
2018-03-26T11:14:53.802Z,101986.25
2018-03-26T11:17:21.392Z,101997.42
2018-03-26T11:19:48.976Z,101987.92
2018-03-26T11:22:23.347Z,101988.27
2018-03-26T11:24:52.637Z,101993.41
2018-03-26T11:27:20.883Z,101994.14
2018-03-26T11:29:48.594Z,101996.59
2018-03-26T11:32:16.114Z,101997.28
2018-03-26T11:34:43.656Z,101995.05
2018-03-26T11:37:11.178Z,101985.35
2018-03-26T11:39:38.762Z,101984.39
2018-03-26T11:42:07.446Z,101987.38
2018-03-26T11:47:16.935Z,101977.27
2018-03-26T11:49:44.639Z,101967.47
2018-03-26T11:52:12.166Z,101963.20
2018-03-26T11:54:39.703Z,101973.72
2018-03-26T11:57:28.174Z,101960.02
2018-03-26T12:05:52.097Z,101957.13
2018-03-26T12:08:19.660Z,101958.14
2018-03-26T12:10:47.170Z,101957.42
2018-03-26T12:13:14.713Z,101938.94
2018-03-26T12:25:33.877Z,101922.24
2018-03-26T12:28:13.335Z,101925.51
2018-03-26T12:30:40.870Z,101924.92
2018-03-26T12:33:15.463Z,101912.85
2018-03-26T12:41:10.308Z,101912.21
2018-03-26T12:43:37.850Z,101903.59
2018-03-26T12:46:17.325Z,101900.87
2018-03-26T12:49:05.085Z,101908.52
2018-03-26T12:54:19.262Z,101899.86
2018-03-26T12:57:11.686Z,101895.66
2018-03-26T12:59:39.341Z,101891.16
2018-03-26T13:02:18.780Z,101899.82
2018-03-26T13:04:46.367Z,101895.20
2018-03-26T13:07:16.770Z,101884.70
2018-03-26T13:09:55.852Z,101882.97
2018-03-26T13:15:03.658Z,101885.40
2018-03-26T13:17:31.849Z,101890.66
2018-03-26T13:19:59.397Z,101884.64
2018-03-26T13:22:26.987Z,101886.91
2018-03-26T13:24:57.102Z,101894.75
2018-03-26T13:30:23.390Z,101895.54
2018-03-26T13:32:51.682Z,101891.15
2018-03-26T13:35:19.210Z,101877.98
2018-03-26T13:37:46.807Z,101890.63
2018-03-26T13:40:15.301Z,101881.49
2018-03-26T13:51:37.603Z,101861.44
2018-03-26T13:54:05.265Z,101865.76
2018-03-26T13:56:33.614Z,101860.00
2018-03-26T14:01:49.089Z,101860.81
2018-03-26T14:04:16.937Z,101854.78
2018-03-26T14:06:44.486Z,101847.38
2018-03-26T14:09:23.950Z,101859.34
2018-03-26T14:12:03.388Z,101848.44
2018-03-26T14:14:42.831Z,101845.75
2018-03-26T14:17:27.020Z,101843.90
2018-03-26T14:19:57.161Z,101849.31
2018-03-26T14:22:32.132Z,101843.50
2018-03-26T14:24:59.686Z,101843.03
2018-03-26T14:27:30.596Z,101842.14
2018-03-26T14:29:58.145Z,101836.09
2018-03-26T14:41:50.693Z,101834.52
2018-03-26T14:44:18.342Z,101839.63
2018-03-26T14:46:45.976Z,101833.89
2018-03-26T14:58:21.970Z,101816.50
2018-03-26T15:00:49.553Z,101816.61
2018-03-26T15:03:17.133Z,101815.72
2018-03-26T15:05:44.969Z,101812.91
2018-03-26T15:17:21.346Z,101781.82
2018-03-26T15:19:48.915Z,101781.58
2018-03-26T15:22:16.562Z,101785.97
2018-03-26T15:33:52.741Z,101755.16
2018-03-26T15:36:20.403Z,101764.16
2018-03-26T15:38:47.985Z,101765.73
2018-03-26T15:50:24.008Z,101765.91
2018-03-26T15:52:51.553Z,101749.84
2018-03-26T15:55:20.045Z,101746.03
2018-03-26T16:06:56.745Z,101742.93
2018-03-26T16:09:24.288Z,101736.06
2018-03-26T16:11:51.945Z,101738.94
2018-03-26T16:23:31.259Z,101745.54
2018-03-26T16:25:59.837Z,101742.31
2018-03-26T16:28:31.093Z,101734.98
2018-03-26T16:40:33.243Z,101736.91
2018-03-26T16:43:04.768Z,101730.62
2018-03-26T16:45:32.404Z,101733.50
2018-03-26T16:57:31.935Z,101747.22
2018-03-26T17:00:00.228Z,101748.37
2018-03-26T17:02:27.733Z,101746.94
2018-03-26T17:04:55.270Z,101743.20
2018-03-26T17:07:25.331Z,101743.81
2018-03-26T17:09:52.940Z,101741.45
2018-03-26T17:12:20.901Z,101734.71
2018-03-26T17:14:48.429Z,101728.39
2018-03-26T17:17:15.946Z,101722.20
2018-03-26T17:19:43.485Z,101721.02
2018-03-26T17:22:11.006Z,101714.66
2018-03-26T17:32:54.219Z,101700.59
2018-03-26T17:35:22.426Z,101700.31
2018-03-26T17:37:49.942Z,101704.78
2018-03-26T17:45:57.083Z,101696.97
2018-03-26T17:51:07.081Z,101698.52
2018-03-26T17:53:36.405Z,101686.97
2018-03-26T17:56:03.976Z,101684.02
2018-03-26T17:58:32.862Z,101679.33
2018-03-26T18:01:01.277Z,101680.73
2018-03-26T18:03:32.070Z,101678.27
2018-03-26T18:06:03.476Z,101669.67
2018-03-26T18:08:31.091Z,101658.92
2018-03-26T18:10:59.161Z,101651.21
2018-03-26T18:13:26.706Z,101652.59
2018-03-26T18:15:55.433Z,101661.36
2018-03-26T18:18:27.418Z,101666.64
2018-03-26T18:21:04.384Z,101666.73
2018-03-26T18:23:31.941Z,101665.08
2018-03-26T18:25:59.520Z,101659.52
2018-03-26T18:28:27.032Z,101650.06
2018-03-26T18:30:54.589Z,101648.41
2018-03-26T18:33:27.232Z,101646.41
2018-03-26T18:41:34.557Z,101611.63
2018-03-26T18:44:02.180Z,101604.39
2018-03-26T18:46:29.762Z,101597.11
2018-03-26T18:48:57.578Z,101588.53
2018-03-26T18:51:47.957Z,101589.47
2018-03-26T18:57:20.472Z,101599.55
2018-03-26T18:59:48.033Z,101590.94
2018-03-26T19:02:15.550Z,101583.64
2018-03-26T19:04:43.159Z,101591.90
2018-03-26T19:07:10.773Z,101585.03
2018-03-26T19:09:40.360Z,101572.94
2018-03-26T19:12:08.017Z,101566.08
2018-03-26T19:14:35.585Z,101565.71
2018-03-26T19:17:03.084Z,101567.95
2018-03-26T19:19:30.615Z,101566.30
2018-03-26T19:21:58.145Z,101551.60
2018-03-26T19:24:25.747Z,101559.45
2018-03-26T19:26:53.397Z,101560.38
2018-03-26T19:29:20.950Z,101561.28
2018-03-26T19:31:48.630Z,101559.55
2018-03-26T19:34:16.182Z,101560.49
2018-03-26T19:36:43.712Z,101560.94
2018-03-26T19:39:11.272Z,101552.76
2018-03-26T19:41:38.833Z,101549.79
2018-03-26T19:44:06.393Z,101540.31
2018-03-26T19:46:33.917Z,101545.12
2018-03-26T19:49:01.468Z,101541.25
2018-03-26T19:51:29.008Z,101537.41
2018-03-26T19:53:56.525Z,101536.61
2018-03-26T19:56:24.065Z,101530.58
2018-03-26T19:58:51.722Z,101524.13
2018-03-26T20:01:19.269Z,101519.41
2018-03-26T20:03:47.081Z,101518.58
2018-03-26T20:06:14.629Z,101512.55
2018-03-26T20:08:42.129Z,101506.55
2018-03-26T20:11:09.657Z,101503.11
2018-03-26T20:13:37.160Z,101495.81
2018-03-26T20:16:04.788Z,101481.55
2018-03-26T20:18:32.402Z,101468.19
2018-03-26T20:20:59.929Z,101456.96
2018-03-26T20:23:27.497Z,101444.47
2018-03-26T20:25:55.012Z,101458.38
2018-03-26T20:28:22.561Z,101457.96
2018-03-26T20:30:50.123Z,101455.39
2018-03-26T20:33:17.749Z,101451.97
2018-03-26T20:35:45.371Z,101440.31
2018-03-26T20:38:12.998Z,101431.25
2018-03-26T20:40:40.494Z,101425.28
2018-03-26T20:43:08.068Z,101410.14
2018-03-26T20:45:35.591Z,101406.30
2018-03-26T20:48:03.145Z,101401.55
2018-03-26T20:50:31.394Z,101401.14
2018-03-26T20:52:59.928Z,101415.43
2018-03-26T20:55:28.552Z,101412.39
2018-03-26T20:57:57.015Z,101401.58
2018-03-26T21:00:24.548Z,101392.98
2018-03-26T21:02:52.086Z,101384.28
2018-03-26T21:05:19.605Z,101381.67
2018-03-26T21:07:47.420Z,101370.05
2018-03-26T21:10:16.036Z,101363.13
2018-03-26T21:12:44.183Z,101357.89
2018-03-26T21:15:11.830Z,101356.59
2018-03-26T21:17:39.362Z,101350.58
2018-03-26T21:20:06.882Z,101344.53
2018-03-26T21:22:34.409Z,101355.36
2018-03-26T21:25:02.026Z,101349.75
2018-03-26T21:27:29.620Z,101354.14
2018-03-26T21:29:57.184Z,101353.73
2018-03-26T21:32:24.723Z,101350.27
2018-03-26T21:34:52.264Z,101358.05
2018-03-26T21:37:19.785Z,101357.67
2018-03-26T21:39:47.301Z,101345.99
2018-03-26T21:42:14.909Z,101342.53
2018-03-26T21:44:42.430Z,101333.44
2018-03-26T21:47:09.981Z,101329.55
2018-03-26T21:49:37.521Z,101336.42
2018-03-26T21:52:05.076Z,101324.36
2018-03-26T21:54:32.586Z,101314.80
2018-03-26T21:57:00.116Z,101321.77
2018-03-26T21:59:27.635Z,101311.33
2018-03-26T22:01:55.193Z,101306.56
2018-03-26T22:04:22.826Z,101309.59
2018-03-26T22:06:50.422Z,101312.17
2018-03-26T22:09:17.983Z,101304.81
2018-03-26T22:11:45.528Z,101304.81
2018-03-26T22:14:13.053Z,101296.53
2018-03-26T22:16:40.705Z,101293.08
2018-03-26T22:19:08.273Z,101277.92
2018-03-26T22:21:35.881Z,101279.65
2018-03-26T22:24:03.541Z,101280.49
2018-03-26T22:26:31.048Z,101273.53
2018-03-26T22:28:58.573Z,101276.98
2018-03-26T22:31:26.124Z,101273.07
2018-03-26T22:33:53.679Z,101266.58
2018-03-26T22:36:21.242Z,101273.50
2018-03-26T22:38:48.789Z,101269.59
2018-03-26T22:41:16.364Z,101270.02
2018-03-26T22:43:43.877Z,101264.34
2018-03-26T22:46:11.412Z,101260.87
2018-03-26T22:48:38.946Z,101260.85
2018-03-26T22:51:06.557Z,101259.51
2018-03-26T22:53:34.097Z,101258.20
2018-03-26T22:56:01.614Z,101253.86
2018-03-26T22:58:29.178Z,101253.36
2018-03-26T23:00:56.713Z,101241.23
2018-03-26T23:03:24.219Z,101238.22
2018-03-26T23:05:51.831Z,101235.61
2018-03-26T23:08:19.402Z,101239.08
2018-03-26T23:13:19.662Z,101255.03
2018-03-26T23:15:49.009Z,101246.80
2018-03-26T23:18:16.544Z,101242.48
2018-03-26T23:20:44.049Z,101255.02
2018-03-26T23:23:11.629Z,101248.95
2018-03-26T23:25:39.427Z,101239.44
2018-03-26T23:28:07.955Z,101245.05
2018-03-26T23:30:36.385Z,101245.91
2018-03-26T23:33:06.214Z,101245.04
2018-03-26T23:35:33.932Z,101235.95
2018-03-26T23:38:01.444Z,101232.93
2018-03-26T23:40:28.974Z,101221.27
2018-03-26T23:42:56.561Z,101226.88
2018-03-26T23:45:25.415Z,101228.16
2018-03-26T23:47:52.957Z,101216.91
2018-03-26T23:50:20.720Z,101203.92
2018-03-26T23:52:48.231Z,101206.54
2018-03-26T23:55:15.764Z,101205.67
2018-03-26T23:57:43.332Z,101192.28
